Pagrindinis puslapis
METAR-TAF:

METAR-TAF

Oro uostai :

Al Wajh, Saudo Arabija

platuma: 26-12N, ilguma: 036-28E, Aukštis: 20 m

Dabartinis oras

Ataskaita buvo paskelbta 1 valandą ir 8 minutes, ne 05:00 UTC
Vėjas 5 kt iš Vakarų/Šiaurės Vakarų
Temperatūra 32°C
Drėgmė 26%
Slėgis 1008 hPa
Matomumas 10 km arba daugiau
nėra debesų žemiau 1500 m ir nėra kamuolinių lietaus debesų

METAR: OEWJ 220500Z 30005KT CAVOK 32/10 Q1008 NOSIG

Laikas: 09:08 (06:08 UTC)

Prognozė

Ataskaita buvo paskelbta 7 valandos ir 8 minutes, ne 23:00 UTC
Prognozė galioja nuo 22 metu 00 UTC su 23 metu 06 UTC
Vėjas 10 kt iš Šiaurės/Šiaurės Rytų
Matomumas: 7000 m
Tapsmas
nuo 22 metu 08 UTC su 22 metu 10 UTC
Vėjas 16 kt iš Šiaurės/Šiaurės Vakarų

TAF: OEWJ 212300Z 2200/2306 02010KT 7000 NSC BECMG 2208/2210 33016KT

Orai ataskaitas ir orų prognozės (METAR, TAF).

turimą stotys yra geltonos ir raudonos taškus žemėlapyje.

Perkelti pele per norėdami pamatyti stoties vardą.

Tada spustelėkite, norėdami matyti oro stebėjimo ir prognozės.

Norėdami pakeisti žemėlapį: spustelėkite ant žalios mygtukų su juodo kryžiaus žemyn,; žalią mygtuką su brūkšneliu, jei norite nutolinti; arba žalių rodyklių gretimoms žemėlapius.


METAR-TAF: